sensor_id;sensor_type;location;lat;lon;timestamp;P1;durP1;ratioP1;P2;durP2;ratioP2
3141;SDS011;1581;51.568;6.998;2024-03-22T00:01:57;32.93;;;18.60;;
3141;SDS011;1581;51.568;6.998;2024-03-22T00:04:23;36.03;;;20.57;;
3141;SDS011;1581;51.568;6.998;2024-03-22T00:06:52;39.53;;;19.70;;
3141;SDS011;1581;51.568;6.998;2024-03-22T00:09:18;31.40;;;18.60;;
3141;SDS011;1581;51.568;6.998;2024-03-22T00:11:48;31.93;;;19.37;;
3141;SDS011;1581;51.568;6.998;2024-03-22T00:14:15;35.10;;;19.23;;
3141;SDS011;1581;51.568;6.998;2024-03-22T00:16:43;33.33;;;18.73;;
3141;SDS011;1581;51.568;6.998;2024-03-22T00:19:09;34.73;;;19.37;;
3141;SDS011;1581;51.568;6.998;2024-03-22T00:21:36;33.57;;;17.93;;
3141;SDS011;1581;51.568;6.998;2024-03-22T00:24:03;35.97;;;19.53;;
3141;SDS011;1581;51.568;6.998;2024-03-22T00:26:31;39.67;;;17.87;;
3141;SDS011;1581;51.568;6.998;2024-03-22T00:28:57;29.47;;;16.93;;
3141;SDS011;1581;51.568;6.998;2024-03-22T00:31:26;32.30;;;17.73;;
3141;SDS011;1581;51.568;6.998;2024-03-22T00:33:52;39.60;;;18.23;;
3141;SDS011;1581;51.568;6.998;2024-03-22T00:36:19;33.50;;;16.73;;
3141;SDS011;1581;51.568;6.998;2024-03-22T00:38:46;31.10;;;17.67;;
3141;SDS011;1581;51.568;6.998;2024-03-22T00:41:13;30.33;;;14.93;;
3141;SDS011;1581;51.568;6.998;2024-03-22T00:43:39;34.70;;;17.70;;
3141;SDS011;1581;51.568;6.998;2024-03-22T00:46:07;30.60;;;18.07;;
3141;SDS011;1581;51.568;6.998;2024-03-22T00:48:35;30.10;;;16.50;;
3141;SDS011;1581;51.568;6.998;2024-03-22T00:51:02;33.00;;;17.00;;
3141;SDS011;1581;51.568;6.998;2024-03-22T00:53:29;29.00;;;16.67;;
3141;SDS011;1581;51.568;6.998;2024-03-22T00:55:56;34.70;;;17.73;;
3141;SDS011;1581;51.568;6.998;2024-03-22T00:58:24;33.43;;;17.10;;
3141;SDS011;1581;51.568;6.998;2024-03-22T01:00:53;26.20;;;15.97;;
3141;SDS011;1581;51.568;6.998;2024-03-22T01:03:19;32.50;;;17.53;;
3141;SDS011;1581;51.568;6.998;2024-03-22T01:05:48;33.03;;;17.27;;
3141;SDS011;1581;51.568;6.998;2024-03-22T01:08:15;35.10;;;19.20;;
3141;SDS011;1581;51.568;6.998;2024-03-22T01:10:42;32.63;;;17.97;;
3141;SDS011;1581;51.568;6.998;2024-03-22T01:13:09;31.97;;;16.73;;
3141;SDS011;1581;51.568;6.998;2024-03-22T01:15:36;34.47;;;17.17;;
3141;SDS011;1581;51.568;6.998;2024-03-22T01:18:03;30.53;;;17.03;;
3141;SDS011;1581;51.568;6.998;2024-03-22T01:20:30;34.50;;;17.77;;
3141;SDS011;1581;51.568;6.998;2024-03-22T01:22:58;31.33;;;15.93;;
3141;SDS011;1581;51.568;6.998;2024-03-22T01:25:25;36.20;;;18.23;;
3141;SDS011;1581;51.568;6.998;2024-03-22T01:27:52;27.03;;;15.97;;
3141;SDS011;1581;51.568;6.998;2024-03-22T01:30:19;33.37;;;16.80;;
3141;SDS011;1581;51.568;6.998;2024-03-22T01:32:46;35.70;;;17.93;;
3141;SDS011;1581;51.568;6.998;2024-03-22T01:35:14;34.20;;;17.07;;
3141;SDS011;1581;51.568;6.998;2024-03-22T01:37:40;33.33;;;16.73;;
3141;SDS011;1581;51.568;6.998;2024-03-22T01:40:09;33.67;;;17.10;;
3141;SDS011;1581;51.568;6.998;2024-03-22T01:42:36;32.47;;;17.70;;
3141;SDS011;1581;51.568;6.998;2024-03-22T01:45:04;37.63;;;17.20;;
3141;SDS011;1581;51.568;6.998;2024-03-22T01:47:31;33.50;;;17.27;;
3141;SDS011;1581;51.568;6.998;2024-03-22T01:49:59;39.70;;;17.03;;
3141;SDS011;1581;51.568;6.998;2024-03-22T01:52:26;40.50;;;17.57;;
3141;SDS011;1581;51.568;6.998;2024-03-22T01:54:54;42.43;;;18.87;;
3141;SDS011;1581;51.568;6.998;2024-03-22T01:57:23;33.93;;;17.83;;
3141;SDS011;1581;51.568;6.998;2024-03-22T01:59:53;35.80;;;16.90;;
3141;SDS011;1581;51.568;6.998;2024-03-22T02:02:22;34.30;;;17.97;;
3141;SDS011;1581;51.568;6.998;2024-03-22T02:04:50;31.90;;;16.57;;
3141;SDS011;1581;51.568;6.998;2024-03-22T02:07:16;38.10;;;17.70;;
3141;SDS011;1581;51.568;6.998;2024-03-22T02:09:43;33.83;;;17.03;;
3141;SDS011;1581;51.568;6.998;2024-03-22T02:12:10;46.40;;;20.57;;
3141;SDS011;1581;51.568;6.998;2024-03-22T02:14:39;29.03;;;16.47;;
3141;SDS011;1581;51.568;6.998;2024-03-22T02:17:06;34.43;;;18.43;;
3141;SDS011;1581;51.568;6.998;2024-03-22T02:19:33;33.23;;;17.97;;
3141;SDS011;1581;51.568;6.998;2024-03-22T02:21:59;39.73;;;18.77;;
3141;SDS011;1581;51.568;6.998;2024-03-22T02:24:28;32.07;;;18.13;;
3141;SDS011;1581;51.568;6.998;2024-03-22T02:26:54;31.17;;;18.10;;
3141;SDS011;1581;51.568;6.998;2024-03-22T02:29:21;32.43;;;17.77;;
3141;SDS011;1581;51.568;6.998;2024-03-22T02:31:47;35.43;;;18.63;;
3141;SDS011;1581;51.568;6.998;2024-03-22T02:34:14;40.90;;;18.17;;
3141;SDS011;1581;51.568;6.998;2024-03-22T02:36:41;38.90;;;18.30;;
3141;SDS011;1581;51.568;6.998;2024-03-22T02:39:08;37.33;;;18.67;;
3141;SDS011;1581;51.568;6.998;2024-03-22T02:41:35;43.60;;;19.80;;
3141;SDS011;1581;51.568;6.998;2024-03-22T02:44:02;44.27;;;18.13;;
3141;SDS011;1581;51.568;6.998;2024-03-22T02:46:29;41.67;;;19.13;;
3141;SDS011;1581;51.568;6.998;2024-03-22T02:48:56;38.50;;;18.47;;
3141;SDS011;1581;51.568;6.998;2024-03-22T02:51:22;44.60;;;17.73;;
3141;SDS011;1581;51.568;6.998;2024-03-22T02:53:52;35.13;;;18.00;;
3141;SDS011;1581;51.568;6.998;2024-03-22T02:56:18;44.27;;;19.10;;
3141;SDS011;1581;51.568;6.998;2024-03-22T02:58:47;43.30;;;19.13;;
3141;SDS011;1581;51.568;6.998;2024-03-22T03:01:14;36.87;;;18.47;;
3141;SDS011;1581;51.568;6.998;2024-03-22T03:03:42;40.97;;;18.13;;
3141;SDS011;1581;51.568;6.998;2024-03-22T03:06:08;40.77;;;19.43;;
3141;SDS011;1581;51.568;6.998;2024-03-22T03:08:39;34.80;;;17.43;;
3141;SDS011;1581;51.568;6.998;2024-03-22T03:11:05;38.50;;;19.03;;
3141;SDS011;1581;51.568;6.998;2024-03-22T03:13:32;41.43;;;20.07;;
3141;SDS011;1581;51.568;6.998;2024-03-22T03:16:00;40.13;;;19.00;;
3141;SDS011;1581;51.568;6.998;2024-03-22T03:18:27;40.50;;;18.73;;
3141;SDS011;1581;51.568;6.998;2024-03-22T03:20:53;36.90;;;19.17;;
3141;SDS011;1581;51.568;6.998;2024-03-22T03:23:20;41.53;;;19.80;;
3141;SDS011;1581;51.568;6.998;2024-03-22T03:25:46;36.63;;;19.57;;
3141;SDS011;1581;51.568;6.998;2024-03-22T03:28:14;41.10;;;17.50;;
3141;SDS011;1581;51.568;6.998;2024-03-22T03:30:40;41.53;;;18.27;;
3141;SDS011;1581;51.568;6.998;2024-03-22T03:33:08;30.03;;;17.63;;
3141;SDS011;1581;51.568;6.998;2024-03-22T03:35:34;41.33;;;19.13;;
3141;SDS011;1581;51.568;6.998;2024-03-22T03:38:02;33.63;;;17.77;;
3141;SDS011;1581;51.568;6.998;2024-03-22T03:40:28;38.73;;;17.80;;
3141;SDS011;1581;51.568;6.998;2024-03-22T03:42:55;36.17;;;18.20;;
3141;SDS011;1581;51.568;6.998;2024-03-22T03:45:21;42.30;;;19.23;;
3141;SDS011;1581;51.568;6.998;2024-03-22T03:47:48;33.03;;;18.00;;
3141;SDS011;1581;51.568;6.998;2024-03-22T03:50:16;38.90;;;18.93;;
3141;SDS011;1581;51.568;6.998;2024-03-22T03:52:43;37.40;;;18.37;;
3141;SDS011;1581;51.568;6.998;2024-03-22T03:55:09;30.10;;;18.07;;
3141;SDS011;1581;51.568;6.998;2024-03-22T03:57:36;36.73;;;18.53;;
3141;SDS011;1581;51.568;6.998;2024-03-22T04:00:03;35.70;;;18.47;;
3141;SDS011;1581;51.568;6.998;2024-03-22T04:02:31;38.77;;;17.53;;
3141;SDS011;1581;51.568;6.998;2024-03-22T04:04:57;36.17;;;17.10;;
3141;SDS011;1581;51.568;6.998;2024-03-22T04:07:26;39.23;;;19.43;;
3141;SDS011;1581;51.568;6.998;2024-03-22T04:09:54;32.30;;;17.23;;
3141;SDS011;1581;51.568;6.998;2024-03-22T04:12:21;40.30;;;18.03;;
3141;SDS011;1581;51.568;6.998;2024-03-22T04:14:47;30.33;;;17.10;;
3141;SDS011;1581;51.568;6.998;2024-03-22T04:17:14;35.43;;;18.80;;
3141;SDS011;1581;51.568;6.998;2024-03-22T04:19:40;34.93;;;18.40;;
3141;SDS011;1581;51.568;6.998;2024-03-22T04:22:08;37.50;;;20.23;;
3141;SDS011;1581;51.568;6.998;2024-03-22T04:24:35;41.80;;;18.07;;
3141;SDS011;1581;51.568;6.998;2024-03-22T04:27:02;32.60;;;17.37;;
3141;SDS011;1581;51.568;6.998;2024-03-22T04:29:29;35.93;;;17.17;;
3141;SDS011;1581;51.568;6.998;2024-03-22T04:31:56;32.70;;;17.00;;
3141;SDS011;1581;51.568;6.998;2024-03-22T04:34:23;27.67;;;15.50;;
3141;SDS011;1581;51.568;6.998;2024-03-22T04:36:50;33.23;;;17.87;;
3141;SDS011;1581;51.568;6.998;2024-03-22T04:39:18;35.10;;;18.83;;
3141;SDS011;1581;51.568;6.998;2024-03-22T04:41:47;30.60;;;15.87;;
3141;SDS011;1581;51.568;6.998;2024-03-22T04:44:14;28.97;;;16.10;;
3141;SDS011;1581;51.568;6.998;2024-03-22T04:46:41;33.73;;;16.80;;
3141;SDS011;1581;51.568;6.998;2024-03-22T04:49:07;30.77;;;16.10;;
3141;SDS011;1581;51.568;6.998;2024-03-22T04:51:34;30.77;;;17.37;;
3141;SDS011;1581;51.568;6.998;2024-03-22T04:54:00;28.63;;;16.50;;
3141;SDS011;1581;51.568;6.998;2024-03-22T04:56:27;28.67;;;16.50;;
3141;SDS011;1581;51.568;6.998;2024-03-22T04:58:55;32.33;;;17.17;;
3141;SDS011;1581;51.568;6.998;2024-03-22T05:01:22;31.10;;;15.37;;
3141;SDS011;1581;51.568;6.998;2024-03-22T05:03:48;35.47;;;18.13;;
3141;SDS011;1581;51.568;6.998;2024-03-22T05:06:16;34.00;;;17.40;;
3141;SDS011;1581;51.568;6.998;2024-03-22T05:08:42;29.20;;;15.67;;
3141;SDS011;1581;51.568;6.998;2024-03-22T05:11:09;25.30;;;15.00;;
3141;SDS011;1581;51.568;6.998;2024-03-22T05:13:36;32.87;;;16.00;;
3141;SDS011;1581;51.568;6.998;2024-03-22T05:16:06;34.60;;;16.57;;
3141;SDS011;1581;51.568;6.998;2024-03-22T05:18:32;29.77;;;16.30;;
3141;SDS011;1581;51.568;6.998;2024-03-22T05:21:00;26.80;;;15.33;;
3141;SDS011;1581;51.568;6.998;2024-03-22T05:23:26;32.93;;;16.13;;
3141;SDS011;1581;51.568;6.998;2024-03-22T05:25:53;28.47;;;16.10;;
3141;SDS011;1581;51.568;6.998;2024-03-22T05:28:21;27.50;;;16.27;;
3141;SDS011;1581;51.568;6.998;2024-03-22T05:30:48;31.90;;;15.60;;
3141;SDS011;1581;51.568;6.998;2024-03-22T05:33:16;29.47;;;15.20;;
3141;SDS011;1581;51.568;6.998;2024-03-22T05:35:43;29.73;;;16.20;;
3141;SDS011;1581;51.568;6.998;2024-03-22T05:38:10;29.80;;;16.67;;
3141;SDS011;1581;51.568;6.998;2024-03-22T05:40:37;28.50;;;14.97;;
3141;SDS011;1581;51.568;6.998;2024-03-22T05:43:03;30.80;;;15.50;;
3141;SDS011;1581;51.568;6.998;2024-03-22T05:45:31;30.83;;;16.27;;
3141;SDS011;1581;51.568;6.998;2024-03-22T05:47:57;27.20;;;16.43;;
3141;SDS011;1581;51.568;6.998;2024-03-22T05:50:26;25.23;;;14.57;;
3141;SDS011;1581;51.568;6.998;2024-03-22T05:52:52;29.77;;;17.13;;
3141;SDS011;1581;51.568;6.998;2024-03-22T05:55:20;27.80;;;15.50;;
3141;SDS011;1581;51.568;6.998;2024-03-22T05:57:46;27.43;;;16.27;;
3141;SDS011;1581;51.568;6.998;2024-03-22T06:00:13;32.47;;;17.00;;
3141;SDS011;1581;51.568;6.998;2024-03-22T06:02:40;28.80;;;15.17;;
3141;SDS011;1581;51.568;6.998;2024-03-22T06:05:08;32.50;;;15.50;;
3141;SDS011;1581;51.568;6.998;2024-03-22T06:07:36;26.97;;;15.07;;
3141;SDS011;1581;51.568;6.998;2024-03-22T06:10:07;25.57;;;14.90;;
3141;SDS011;1581;51.568;6.998;2024-03-22T06:12:35;29.53;;;15.30;;
3141;SDS011;1581;51.568;6.998;2024-03-22T06:15:02;22.77;;;14.57;;
3141;SDS011;1581;51.568;6.998;2024-03-22T06:17:31;25.80;;;14.87;;
3141;SDS011;1581;51.568;6.998;2024-03-22T06:19:59;25.50;;;14.40;;
3141;SDS011;1581;51.568;6.998;2024-03-22T06:22:25;24.03;;;13.90;;
3141;SDS011;1581;51.568;6.998;2024-03-22T06:24:54;25.87;;;14.93;;
3141;SDS011;1581;51.568;6.998;2024-03-22T06:27:20;24.60;;;14.50;;
3141;SDS011;1581;51.568;6.998;2024-03-22T06:29:50;34.50;;;15.30;;
3141;SDS011;1581;51.568;6.998;2024-03-22T06:32:16;32.53;;;15.53;;
3141;SDS011;1581;51.568;6.998;2024-03-22T06:34:44;22.73;;;14.20;;
3141;SDS011;1581;51.568;6.998;2024-03-22T06:37:10;22.37;;;14.37;;
3141;SDS011;1581;51.568;6.998;2024-03-22T06:39:37;25.30;;;13.90;;
3141;SDS011;1581;51.568;6.998;2024-03-22T06:42:05;23.70;;;13.87;;
3141;SDS011;1581;51.568;6.998;2024-03-22T06:44:32;31.83;;;13.40;;
3141;SDS011;1581;51.568;6.998;2024-03-22T06:46:59;20.70;;;13.37;;
3141;SDS011;1581;51.568;6.998;2024-03-22T06:49:27;27.07;;;14.33;;
3141;SDS011;1581;51.568;6.998;2024-03-22T06:51:53;25.67;;;14.13;;
3141;SDS011;1581;51.568;6.998;2024-03-22T06:54:20;25.30;;;14.63;;
3141;SDS011;1581;51.568;6.998;2024-03-22T06:56:47;28.73;;;13.57;;
3141;SDS011;1581;51.568;6.998;2024-03-22T06:59:15;26.97;;;14.10;;
3141;SDS011;1581;51.568;6.998;2024-03-22T07:01:42;21.53;;;13.00;;
3141;SDS011;1581;51.568;6.998;2024-03-22T07:04:09;21.80;;;14.00;;
3141;SDS011;1581;51.568;6.998;2024-03-22T07:06:37;22.57;;;14.67;;
3141;SDS011;1581;51.568;6.998;2024-03-22T07:09:04;20.17;;;13.70;;
3141;SDS011;1581;51.568;6.998;2024-03-22T07:11:32;22.90;;;12.80;;
3141;SDS011;1581;51.568;6.998;2024-03-22T07:13:59;23.60;;;14.00;;
3141;SDS011;1581;51.568;6.998;2024-03-22T07:16:26;39.23;;;14.67;;
3141;SDS011;1581;51.568;6.998;2024-03-22T07:18:54;23.60;;;13.93;;
3141;SDS011;1581;51.568;6.998;2024-03-22T07:21:20;21.53;;;12.03;;
3141;SDS011;1581;51.568;6.998;2024-03-22T07:23:47;20.93;;;11.93;;
3141;SDS011;1581;51.568;6.998;2024-03-22T07:26:13;30.53;;;13.97;;
3141;SDS011;1581;51.568;6.998;2024-03-22T07:28:41;24.30;;;12.70;;
3141;SDS011;1581;51.568;6.998;2024-03-22T07:31:07;19.97;;;12.23;;
3141;SDS011;1581;51.568;6.998;2024-03-22T07:33:35;23.70;;;12.60;;
3141;SDS011;1581;51.568;6.998;2024-03-22T07:36:02;22.17;;;13.00;;
3141;SDS011;1581;51.568;6.998;2024-03-22T07:38:29;32.87;;;12.50;;
3141;SDS011;1581;51.568;6.998;2024-03-22T07:40:56;25.03;;;12.93;;
3141;SDS011;1581;51.568;6.998;2024-03-22T07:43:23;22.53;;;11.20;;
3141;SDS011;1581;51.568;6.998;2024-03-22T07:45:49;23.60;;;12.30;;
3141;SDS011;1581;51.568;6.998;2024-03-22T07:48:20;19.73;;;11.73;;
3141;SDS011;1581;51.568;6.998;2024-03-22T07:50:55;22.97;;;12.73;;
3141;SDS011;1581;51.568;6.998;2024-03-22T07:53:23;18.60;;;11.43;;
3141;SDS011;1581;51.568;6.998;2024-03-22T07:55:50;23.67;;;11.13;;
3141;SDS011;1581;51.568;6.998;2024-03-22T07:58:17;19.07;;;10.90;;
3141;SDS011;1581;51.568;6.998;2024-03-22T08:00:44;17.83;;;10.90;;
3141;SDS011;1581;51.568;6.998;2024-03-22T08:03:14;17.47;;;11.57;;
3141;SDS011;1581;51.568;6.998;2024-03-22T08:05:41;16.17;;;11.07;;
3141;SDS011;1581;51.568;6.998;2024-03-22T08:08:10;18.57;;;10.73;;
3141;SDS011;1581;51.568;6.998;2024-03-22T08:10:36;17.77;;;11.30;;
3141;SDS011;1581;51.568;6.998;2024-03-22T08:13:03;17.67;;;10.50;;
3141;SDS011;1581;51.568;6.998;2024-03-22T08:15:30;16.20;;;9.83;;
3141;SDS011;1581;51.568;6.998;2024-03-22T08:17:57;20.10;;;10.13;;
3141;SDS011;1581;51.568;6.998;2024-03-22T08:20:23;21.63;;;11.27;;
3141;SDS011;1581;51.568;6.998;2024-03-22T08:22:51;18.50;;;10.10;;
3141;SDS011;1581;51.568;6.998;2024-03-22T08:25:18;17.83;;;9.90;;
3141;SDS011;1581;51.568;6.998;2024-03-22T08:27:46;15.53;;;8.87;;
3141;SDS011;1581;51.568;6.998;2024-03-22T08:30:12;16.00;;;9.60;;
3141;SDS011;1581;51.568;6.998;2024-03-22T08:32:40;18.63;;;10.57;;
3141;SDS011;1581;51.568;6.998;2024-03-22T08:35:06;19.07;;;10.57;;
3141;SDS011;1581;51.568;6.998;2024-03-22T08:37:34;13.83;;;8.40;;
3141;SDS011;1581;51.568;6.998;2024-03-22T08:40:00;15.90;;;9.60;;
3141;SDS011;1581;51.568;6.998;2024-03-22T08:42:30;14.20;;;9.97;;
3141;SDS011;1581;51.568;6.998;2024-03-22T08:44:57;21.93;;;11.13;;
3141;SDS011;1581;51.568;6.998;2024-03-22T08:47:24;16.90;;;9.17;;
3141;SDS011;1581;51.568;6.998;2024-03-22T08:49:51;16.87;;;9.37;;
3141;SDS011;1581;51.568;6.998;2024-03-22T08:52:18;15.77;;;10.07;;
3141;SDS011;1581;51.568;6.998;2024-03-22T08:54:44;14.77;;;9.30;;
3141;SDS011;1581;51.568;6.998;2024-03-22T08:57:12;14.50;;;8.97;;
3141;SDS011;1581;51.568;6.998;2024-03-22T08:59:42;16.67;;;8.33;;
3141;SDS011;1581;51.568;6.998;2024-03-22T09:02:12;19.13;;;9.70;;
3141;SDS011;1581;51.568;6.998;2024-03-22T09:04:46;16.80;;;9.30;;
3141;SDS011;1581;51.568;6.998;2024-03-22T09:10:32;19.00;;;8.73;;
3141;SDS011;1581;51.568;6.998;2024-03-22T09:13:00;16.63;;;8.23;;
3141;SDS011;1581;51.568;6.998;2024-03-22T09:15:46;20.20;;;10.60;;
3141;SDS011;1581;51.568;6.998;2024-03-22T09:18:15;18.97;;;9.40;;
3141;SDS011;1581;51.568;6.998;2024-03-22T09:20:42;17.40;;;8.40;;
3141;SDS011;1581;51.568;6.998;2024-03-22T09:23:10;16.37;;;9.00;;
3141;SDS011;1581;51.568;6.998;2024-03-22T09:25:36;15.70;;;8.80;;
3141;SDS011;1581;51.568;6.998;2024-03-22T09:28:04;19.80;;;9.20;;
3141;SDS011;1581;51.568;6.998;2024-03-22T09:30:31;18.23;;;8.80;;
3141;SDS011;1581;51.568;6.998;2024-03-22T09:39:22;12.73;;;8.17;;
3141;SDS011;1581;51.568;6.998;2024-03-22T09:41:50;14.87;;;9.30;;
3141;SDS011;1581;51.568;6.998;2024-03-22T09:44:18;18.13;;;8.40;;
3141;SDS011;1581;51.568;6.998;2024-03-22T09:46:46;17.57;;;7.23;;
3141;SDS011;1581;51.568;6.998;2024-03-22T09:49:14;16.10;;;9.60;;
3141;SDS011;1581;51.568;6.998;2024-03-22T09:51:43;12.73;;;8.43;;
3141;SDS011;1581;51.568;6.998;2024-03-22T09:54:09;12.77;;;8.40;;
3141;SDS011;1581;51.568;6.998;2024-03-22T09:56:37;18.30;;;8.27;;
3141;SDS011;1581;51.568;6.998;2024-03-22T09:59:04;14.27;;;7.73;;
3141;SDS011;1581;51.568;6.998;2024-03-22T10:01:32;15.10;;;9.17;;
3141;SDS011;1581;51.568;6.998;2024-03-22T10:03:59;12.40;;;7.83;;
3141;SDS011;1581;51.568;6.998;2024-03-22T10:06:28;16.33;;;9.20;;
3141;SDS011;1581;51.568;6.998;2024-03-22T10:08:57;13.33;;;9.53;;
3141;SDS011;1581;51.568;6.998;2024-03-22T10:11:25;12.80;;;8.33;;
3141;SDS011;1581;51.568;6.998;2024-03-22T10:13:52;13.77;;;8.40;;
3141;SDS011;1581;51.568;6.998;2024-03-22T10:16:20;12.90;;;8.23;;
3141;SDS011;1581;51.568;6.998;2024-03-22T10:18:46;18.33;;;8.93;;
3141;SDS011;1581;51.568;6.998;2024-03-22T10:21:17;13.02;;;7.95;;
3141;SDS011;1581;51.568;6.998;2024-03-22T10:23:46;13.17;;;7.53;;
3141;SDS011;1581;51.568;6.998;2024-03-22T10:26:15;11.57;;;7.75;;
3141;SDS011;1581;51.568;6.998;2024-03-22T10:28:45;14.77;;;7.93;;
3141;SDS011;1581;51.568;6.998;2024-03-22T10:31:13;17.58;;;7.13;;
3141;SDS011;1581;51.568;6.998;2024-03-22T10:33:40;20.37;;;8.03;;
3141;SDS011;1581;51.568;6.998;2024-03-22T10:36:10;14.23;;;7.83;;
3141;SDS011;1581;51.568;6.998;2024-03-22T10:38:38;12.17;;;7.27;;
3141;SDS011;1581;51.568;6.998;2024-03-22T10:41:07;16.10;;;8.57;;
3141;SDS011;1581;51.568;6.998;2024-03-22T10:43:33;27.92;;;8.68;;
3141;SDS011;1581;51.568;6.998;2024-03-22T10:46:02;10.45;;;7.25;;
3141;SDS011;1581;51.568;6.998;2024-03-22T10:48:31;19.00;;;8.47;;
3141;SDS011;1581;51.568;6.998;2024-03-22T10:51:00;14.43;;;8.40;;
3141;SDS011;1581;51.568;6.998;2024-03-22T10:53:28;11.87;;;7.70;;
3141;SDS011;1581;51.568;6.998;2024-03-22T10:56:00;17.47;;;9.10;;
3141;SDS011;1581;51.568;6.998;2024-03-22T10:58:31;16.70;;;7.70;;
3141;SDS011;1581;51.568;6.998;2024-03-22T11:00:59;15.90;;;9.63;;
3141;SDS011;1581;51.568;6.998;2024-03-22T11:03:31;13.60;;;9.33;;
3141;SDS011;1581;51.568;6.998;2024-03-22T11:05:59;14.73;;;9.03;;
3141;SDS011;1581;51.568;6.998;2024-03-22T11:08:26;11.77;;;9.27;;
3141;SDS011;1581;51.568;6.998;2024-03-22T11:10:56;15.97;;;8.90;;
3141;SDS011;1581;51.568;6.998;2024-03-22T11:13:22;12.77;;;7.77;;
3141;SDS011;1581;51.568;6.998;2024-03-22T11:15:51;13.23;;;8.43;;
3141;SDS011;1581;51.568;6.998;2024-03-22T11:18:17;14.10;;;8.23;;
3141;SDS011;1581;51.568;6.998;2024-03-22T11:20:44;10.10;;;7.53;;
3141;SDS011;1581;51.568;6.998;2024-03-22T11:23:13;11.17;;;8.30;;
3141;SDS011;1581;51.568;6.998;2024-03-22T11:25:40;12.23;;;8.17;;
3141;SDS011;1581;51.568;6.998;2024-03-22T11:28:06;13.87;;;8.30;;
3141;SDS011;1581;51.568;6.998;2024-03-22T11:30:37;11.63;;;8.40;;
3141;SDS011;1581;51.568;6.998;2024-03-22T11:33:04;14.03;;;8.83;;
3141;SDS011;1581;51.568;6.998;2024-03-22T11:35:35;14.90;;;8.97;;
3141;SDS011;1581;51.568;6.998;2024-03-22T11:38:02;13.27;;;8.63;;
3141;SDS011;1581;51.568;6.998;2024-03-22T11:40:31;19.60;;;9.60;;
3141;SDS011;1581;51.568;6.998;2024-03-22T11:42:59;13.93;;;8.90;;
3141;SDS011;1581;51.568;6.998;2024-03-22T11:45:29;18.53;;;9.50;;
3141;SDS011;1581;51.568;6.998;2024-03-22T11:48:01;13.73;;;9.10;;
3141;SDS011;1581;51.568;6.998;2024-03-22T11:50:38;11.00;;;8.90;;
3141;SDS011;1581;51.568;6.998;2024-03-22T11:53:25;14.70;;;8.50;;
3141;SDS011;1581;51.568;6.998;2024-03-22T11:55:53;13.23;;;8.37;;
3141;SDS011;1581;51.568;6.998;2024-03-22T11:58:20;15.13;;;9.03;;
3141;SDS011;1581;51.568;6.998;2024-03-22T12:00:48;16.90;;;10.00;;
3141;SDS011;1581;51.568;6.998;2024-03-22T12:03:16;15.40;;;10.20;;
3141;SDS011;1581;51.568;6.998;2024-03-22T12:05:48;13.70;;;9.20;;
3141;SDS011;1581;51.568;6.998;2024-03-22T12:08:16;14.40;;;9.23;;
3141;SDS011;1581;51.568;6.998;2024-03-22T12:10:45;15.10;;;9.63;;
3141;SDS011;1581;51.568;6.998;2024-03-22T12:13:12;16.33;;;8.50;;
3141;SDS011;1581;51.568;6.998;2024-03-22T12:15:40;12.90;;;8.97;;
3141;SDS011;1581;51.568;6.998;2024-03-22T12:18:07;14.60;;;9.87;;
3141;SDS011;1581;51.568;6.998;2024-03-22T12:20:35;16.87;;;9.50;;
3141;SDS011;1581;51.568;6.998;2024-03-22T12:23:04;12.87;;;8.93;;
3141;SDS011;1581;51.568;6.998;2024-03-22T12:25:33;11.63;;;8.53;;
3141;SDS011;1581;51.568;6.998;2024-03-22T12:28:00;14.87;;;9.00;;
3141;SDS011;1581;51.568;6.998;2024-03-22T12:30:28;18.90;;;9.30;;
3141;SDS011;1581;51.568;6.998;2024-03-22T12:32:55;14.17;;;8.87;;
3141;SDS011;1581;51.568;6.998;2024-03-22T12:35:24;9.97;;;8.33;;
3141;SDS011;1581;51.568;6.998;2024-03-22T12:37:51;12.60;;;9.10;;
3141;SDS011;1581;51.568;6.998;2024-03-22T12:40:19;9.33;;;7.80;;
3141;SDS011;1581;51.568;6.998;2024-03-22T12:42:45;13.57;;;9.23;;
3141;SDS011;1581;51.568;6.998;2024-03-22T12:45:12;11.03;;;8.43;;
3141;SDS011;1581;51.568;6.998;2024-03-22T12:47:38;14.37;;;9.23;;
3141;SDS011;1581;51.568;6.998;2024-03-22T12:50:06;13.63;;;8.93;;
3141;SDS011;1581;51.568;6.998;2024-03-22T12:52:33;10.83;;;8.47;;
3141;SDS011;1581;51.568;6.998;2024-03-22T12:55:00;11.60;;;8.07;;
3141;SDS011;1581;51.568;6.998;2024-03-22T12:57:28;12.30;;;9.10;;
3141;SDS011;1581;51.568;6.998;2024-03-22T12:59:56;14.83;;;8.97;;
3141;SDS011;1581;51.568;6.998;2024-03-22T13:02:23;10.60;;;7.53;;
3141;SDS011;1581;51.568;6.998;2024-03-22T13:04:51;11.53;;;8.33;;
3141;SDS011;1581;51.568;6.998;2024-03-22T13:07:18;12.80;;;9.40;;
3141;SDS011;1581;51.568;6.998;2024-03-22T13:09:46;16.20;;;8.93;;
3141;SDS011;1581;51.568;6.998;2024-03-22T13:12:12;14.60;;;9.63;;
3141;SDS011;1581;51.568;6.998;2024-03-22T13:14:40;10.90;;;8.00;;
3141;SDS011;1581;51.568;6.998;2024-03-22T13:17:07;10.13;;;7.50;;
3141;SDS011;1581;51.568;6.998;2024-03-22T13:19:35;15.27;;;9.00;;
3141;SDS011;1581;51.568;6.998;2024-03-22T13:22:01;13.73;;;8.60;;
3141;SDS011;1581;51.568;6.998;2024-03-22T13:24:28;10.70;;;7.83;;
3141;SDS011;1581;51.568;6.998;2024-03-22T13:26:54;10.07;;;8.23;;
3141;SDS011;1581;51.568;6.998;2024-03-22T13:29:21;12.43;;;8.67;;
3141;SDS011;1581;51.568;6.998;2024-03-22T13:31:49;12.03;;;8.27;;
3141;SDS011;1581;51.568;6.998;2024-03-22T13:34:17;12.47;;;7.93;;
3141;SDS011;1581;51.568;6.998;2024-03-22T13:36:43;13.37;;;7.50;;
3141;SDS011;1581;51.568;6.998;2024-03-22T13:39:10;11.37;;;8.10;;
3141;SDS011;1581;51.568;6.998;2024-03-22T13:41:36;18.57;;;8.60;;
3141;SDS011;1581;51.568;6.998;2024-03-22T13:44:06;10.40;;;7.10;;
3141;SDS011;1581;51.568;6.998;2024-03-22T13:46:33;12.20;;;8.00;;
3141;SDS011;1581;51.568;6.998;2024-03-22T13:49:03;9.00;;;7.43;;
3141;SDS011;1581;51.568;6.998;2024-03-22T13:51:29;10.30;;;7.80;;
3141;SDS011;1581;51.568;6.998;2024-03-22T13:53:57;18.47;;;7.77;;
3141;SDS011;1581;51.568;6.998;2024-03-22T13:56:24;15.60;;;7.73;;
3141;SDS011;1581;51.568;6.998;2024-03-22T13:58:52;11.00;;;7.97;;
3141;SDS011;1581;51.568;6.998;2024-03-22T14:01:18;10.27;;;7.53;;
3141;SDS011;1581;51.568;6.998;2024-03-22T14:03:45;13.10;;;8.13;;
3141;SDS011;1581;51.568;6.998;2024-03-22T14:06:12;10.57;;;7.97;;
3141;SDS011;1581;51.568;6.998;2024-03-22T14:08:39;10.37;;;8.40;;
3141;SDS011;1581;51.568;6.998;2024-03-22T14:11:07;10.60;;;8.53;;
3141;SDS011;1581;51.568;6.998;2024-03-22T14:13:34;15.80;;;9.90;;
3141;SDS011;1581;51.568;6.998;2024-03-22T14:16:01;11.87;;;8.97;;
3141;SDS011;1581;51.568;6.998;2024-03-22T14:18:28;16.77;;;10.33;;
3141;SDS011;1581;51.568;6.998;2024-03-22T14:20:54;12.17;;;9.77;;
3141;SDS011;1581;51.568;6.998;2024-03-22T14:23:22;13.60;;;9.30;;
3141;SDS011;1581;51.568;6.998;2024-03-22T14:25:48;14.80;;;9.23;;
3141;SDS011;1581;51.568;6.998;2024-03-22T14:28:16;12.77;;;9.60;;
3141;SDS011;1581;51.568;6.998;2024-03-22T14:30:43;16.40;;;10.70;;
3141;SDS011;1581;51.568;6.998;2024-03-22T14:33:12;15.17;;;10.50;;
3141;SDS011;1581;51.568;6.998;2024-03-22T14:35:39;15.63;;;10.77;;
3141;SDS011;1581;51.568;6.998;2024-03-22T14:38:13;16.53;;;11.60;;
3141;SDS011;1581;51.568;6.998;2024-03-22T14:40:40;19.73;;;12.10;;
3141;SDS011;1581;51.568;6.998;2024-03-22T14:43:07;15.30;;;11.10;;
3141;SDS011;1581;51.568;6.998;2024-03-22T14:45:33;14.17;;;11.07;;
3141;SDS011;1581;51.568;6.998;2024-03-22T14:48:00;15.50;;;12.03;;
3141;SDS011;1581;51.568;6.998;2024-03-22T14:50:34;13.63;;;11.60;;
3141;SDS011;1581;51.568;6.998;2024-03-22T14:53:03;18.67;;;12.13;;
3141;SDS011;1581;51.568;6.998;2024-03-22T14:55:31;16.80;;;11.87;;
3141;SDS011;1581;51.568;6.998;2024-03-22T14:58:00;17.77;;;13.77;;
3141;SDS011;1581;51.568;6.998;2024-03-22T15:00:26;17.03;;;12.27;;
3141;SDS011;1581;51.568;6.998;2024-03-22T15:02:53;22.90;;;13.50;;
3141;SDS011;1581;51.568;6.998;2024-03-22T15:05:19;23.87;;;13.00;;